sensor_id;sensor_type;location;lat;lon;timestamp;temperature;humidity
9410;DHT22;4744;52.576;13.568;2023-05-07T00:00:43;8.70;1.00
9410;DHT22;4744;52.576;13.568;2023-05-07T00:03:10;8.70;1.00
9410;DHT22;4744;52.576;13.568;2023-05-07T00:05:39;8.60;1.00
9410;DHT22;4744;52.576;13.568;2023-05-07T00:08:07;8.60;1.00
9410;DHT22;4744;52.576;13.568;2023-05-07T00:10:33;8.60;1.00
9410;DHT22;4744;52.576;13.568;2023-05-07T00:13:00;8.60;1.00
9410;DHT22;4744;52.576;13.568;2023-05-07T00:15:27;8.60;1.00
9410;DHT22;4744;52.576;13.568;2023-05-07T00:17:55;8.60;1.00
9410;DHT22;4744;52.576;13.568;2023-05-07T00:20:24;8.60;1.00
9410;DHT22;4744;52.576;13.568;2023-05-07T00:22:51;8.60;1.00
9410;DHT22;4744;52.576;13.568;2023-05-07T00:25:18;8.60;1.00
9410;DHT22;4744;52.576;13.568;2023-05-07T00:27:45;8.60;1.00
9410;DHT22;4744;52.576;13.568;2023-05-07T00:30:13;8.50;1.00
9410;DHT22;4744;52.576;13.568;2023-05-07T00:32:40;8.50;1.00
9410;DHT22;4744;52.576;13.568;2023-05-07T00:35:09;8.50;1.00
9410;DHT22;4744;52.576;13.568;2023-05-07T00:37:36;8.50;1.00
9410;DHT22;4744;52.576;13.568;2023-05-07T00:40:03;8.50;1.00
9410;DHT22;4744;52.576;13.568;2023-05-07T00:42:32;8.40;1.00
9410;DHT22;4744;52.576;13.568;2023-05-07T00:44:59;8.50;1.00
9410;DHT22;4744;52.576;13.568;2023-05-07T00:47:26;8.40;1.00
9410;DHT22;4744;52.576;13.568;2023-05-07T00:49:53;8.40;1.00
9410;DHT22;4744;52.576;13.568;2023-05-07T00:52:24;8.50;1.00
9410;DHT22;4744;52.576;13.568;2023-05-07T00:54:52;8.40;1.00
9410;DHT22;4744;52.576;13.568;2023-05-07T00:57:21;8.50;1.00
9410;DHT22;4744;52.576;13.568;2023-05-07T00:59:48;8.40;1.00
9410;DHT22;4744;52.576;13.568;2023-05-07T01:02:15;8.40;1.00
9410;DHT22;4744;52.576;13.568;2023-05-07T01:04:43;8.40;1.00
9410;DHT22;4744;52.576;13.568;2023-05-07T01:07:10;8.40;1.00
9410;DHT22;4744;52.576;13.568;2023-05-07T01:09:38;8.40;1.00
9410;DHT22;4744;52.576;13.568;2023-05-07T01:12:07;8.40;1.00
9410;DHT22;4744;52.576;13.568;2023-05-07T01:14:34;8.40;1.00
9410;DHT22;4744;52.576;13.568;2023-05-07T01:17:01;8.40;1.00
9410;DHT22;4744;52.576;13.568;2023-05-07T01:19:29;8.40;1.00
9410;DHT22;4744;52.576;13.568;2023-05-07T01:22:02;8.50;1.00
9410;DHT22;4744;52.576;13.568;2023-05-07T01:24:31;8.50;1.00
9410;DHT22;4744;52.576;13.568;2023-05-07T01:26:58;8.50;1.00
9410;DHT22;4744;52.576;13.568;2023-05-07T01:29:27;8.50;1.00
9410;DHT22;4744;52.576;13.568;2023-05-07T01:31:54;8.50;1.00
9410;DHT22;4744;52.576;13.568;2023-05-07T01:34:22;8.50;1.00
9410;DHT22;4744;52.576;13.568;2023-05-07T01:36:52;8.50;1.00
9410;DHT22;4744;52.576;13.568;2023-05-07T01:39:21;8.50;1.00
9410;DHT22;4744;52.576;13.568;2023-05-07T01:41:50;8.50;1.00
9410;DHT22;4744;52.576;13.568;2023-05-07T01:44:18;8.50;1.00
9410;DHT22;4744;52.576;13.568;2023-05-07T01:46:46;8.50;1.00
9410;DHT22;4744;52.576;13.568;2023-05-07T01:49:14;8.50;1.00
9410;DHT22;4744;52.576;13.568;2023-05-07T01:51:41;8.50;1.00
9410;DHT22;4744;52.576;13.568;2023-05-07T01:54:08;8.50;1.00
9410;DHT22;4744;52.576;13.568;2023-05-07T01:56:35;8.50;1.00
9410;DHT22;4744;52.576;13.568;2023-05-07T01:59:04;8.50;1.00
9410;DHT22;4744;52.576;13.568;2023-05-07T02:01:31;8.50;1.00
9410;DHT22;4744;52.576;13.568;2023-05-07T02:03:57;8.50;1.00
9410;DHT22;4744;52.576;13.568;2023-05-07T02:06:24;8.50;1.00
9410;DHT22;4744;52.576;13.568;2023-05-07T02:08:51;8.50;1.00
9410;DHT22;4744;52.576;13.568;2023-05-07T02:11:18;8.50;1.00
9410;DHT22;4744;52.576;13.568;2023-05-07T02:13:45;8.50;1.00
9410;DHT22;4744;52.576;13.568;2023-05-07T02:16:13;8.50;1.00
9410;DHT22;4744;52.576;13.568;2023-05-07T02:18:40;8.50;1.00
9410;DHT22;4744;52.576;13.568;2023-05-07T02:21:07;8.50;1.00
9410;DHT22;4744;52.576;13.568;2023-05-07T02:23:34;8.40;1.00
9410;DHT22;4744;52.576;13.568;2023-05-07T02:26:01;8.40;1.00
9410;DHT22;4744;52.576;13.568;2023-05-07T02:28:28;8.40;1.00
9410;DHT22;4744;52.576;13.568;2023-05-07T02:30:55;8.40;1.00
9410;DHT22;4744;52.576;13.568;2023-05-07T02:33:25;8.50;1.00
9410;DHT22;4744;52.576;13.568;2023-05-07T02:35:52;8.40;1.00
9410;DHT22;4744;52.576;13.568;2023-05-07T02:38:19;8.40;1.00
9410;DHT22;4744;52.576;13.568;2023-05-07T02:40:45;8.40;1.00
9410;DHT22;4744;52.576;13.568;2023-05-07T02:43:12;8.40;1.00
9410;DHT22;4744;52.576;13.568;2023-05-07T02:45:39;8.40;1.00
9410;DHT22;4744;52.576;13.568;2023-05-07T02:48:06;8.40;1.00
9410;DHT22;4744;52.576;13.568;2023-05-07T02:50:34;8.40;1.00
9410;DHT22;4744;52.576;13.568;2023-05-07T02:53:01;8.40;1.00
9410;DHT22;4744;52.576;13.568;2023-05-07T02:55:28;8.50;1.00
9410;DHT22;4744;52.576;13.568;2023-05-07T02:57:55;8.50;1.00
9410;DHT22;4744;52.576;13.568;2023-05-07T03:00:22;8.50;1.00
9410;DHT22;4744;52.576;13.568;2023-05-07T03:02:49;8.40;1.00
9410;DHT22;4744;52.576;13.568;2023-05-07T03:05:16;8.40;1.00
9410;DHT22;4744;52.576;13.568;2023-05-07T03:07:44;8.40;1.00
9410;DHT22;4744;52.576;13.568;2023-05-07T03:10:12;8.50;1.00
9410;DHT22;4744;52.576;13.568;2023-05-07T03:12:39;8.50;1.00
9410;DHT22;4744;52.576;13.568;2023-05-07T03:15:07;8.50;1.00
9410;DHT22;4744;52.576;13.568;2023-05-07T03:17:35;8.50;1.00
9410;DHT22;4744;52.576;13.568;2023-05-07T03:20:02;8.50;1.00
9410;DHT22;4744;52.576;13.568;2023-05-07T03:22:29;8.40;1.00
9410;DHT22;4744;52.576;13.568;2023-05-07T03:24:57;8.50;1.00
9410;DHT22;4744;52.576;13.568;2023-05-07T03:27:24;8.50;1.00
9410;DHT22;4744;52.576;13.568;2023-05-07T03:29:51;8.50;1.00
9410;DHT22;4744;52.576;13.568;2023-05-07T03:32:18;8.40;1.00
9410;DHT22;4744;52.576;13.568;2023-05-07T03:34:45;8.40;1.00
9410;DHT22;4744;52.576;13.568;2023-05-07T03:37:11;8.40;1.00
9410;DHT22;4744;52.576;13.568;2023-05-07T03:39:38;8.40;1.00
9410;DHT22;4744;52.576;13.568;2023-05-07T03:42:07;8.40;1.00
9410;DHT22;4744;52.576;13.568;2023-05-07T03:44:34;8.40;1.00
9410;DHT22;4744;52.576;13.568;2023-05-07T03:47:01;8.40;1.00
9410;DHT22;4744;52.576;13.568;2023-05-07T03:49:28;8.40;1.00
9410;DHT22;4744;52.576;13.568;2023-05-07T03:51:55;8.40;1.00
9410;DHT22;4744;52.576;13.568;2023-05-07T03:54:22;8.40;1.00
9410;DHT22;4744;52.576;13.568;2023-05-07T03:56:49;8.50;1.00
9410;DHT22;4744;52.576;13.568;2023-05-07T03:59:17;8.50;1.00
9410;DHT22;4744;52.576;13.568;2023-05-07T04:01:44;8.40;1.00
9410;DHT22;4744;52.576;13.568;2023-05-07T04:04:11;8.40;1.00
9410;DHT22;4744;52.576;13.568;2023-05-07T04:06:38;8.40;1.00
9410;DHT22;4744;52.576;13.568;2023-05-07T04:09:05;8.40;1.00
9410;DHT22;4744;52.576;13.568;2023-05-07T04:11:32;8.40;1.00
9410;DHT22;4744;52.576;13.568;2023-05-07T04:13:59;8.40;1.00
9410;DHT22;4744;52.576;13.568;2023-05-07T04:16:27;8.40;1.00
9410;DHT22;4744;52.576;13.568;2023-05-07T04:18:54;8.40;1.00
9410;DHT22;4744;52.576;13.568;2023-05-07T04:21:21;8.40;1.00
9410;DHT22;4744;52.576;13.568;2023-05-07T04:23:48;8.40;1.00
9410;DHT22;4744;52.576;13.568;2023-05-07T04:26:16;8.40;1.00
9410;DHT22;4744;52.576;13.568;2023-05-07T04:28:43;8.40;1.00
9410;DHT22;4744;52.576;13.568;2023-05-07T04:31:13;8.40;1.00
9410;DHT22;4744;52.576;13.568;2023-05-07T04:33:42;8.40;1.00
9410;DHT22;4744;52.576;13.568;2023-05-07T04:36:10;8.50;1.00
9410;DHT22;4744;52.576;13.568;2023-05-07T04:38:37;8.50;1.00
9410;DHT22;4744;52.576;13.568;2023-05-07T04:41:05;8.50;1.00
9410;DHT22;4744;52.576;13.568;2023-05-07T04:43:32;8.50;1.00
9410;DHT22;4744;52.576;13.568;2023-05-07T04:45:59;8.50;1.00
9410;DHT22;4744;52.576;13.568;2023-05-07T04:48:26;8.50;1.00
9410;DHT22;4744;52.576;13.568;2023-05-07T04:50:56;8.50;1.00
9410;DHT22;4744;52.576;13.568;2023-05-07T04:53:22;8.50;1.00
9410;DHT22;4744;52.576;13.568;2023-05-07T04:55:55;8.50;1.00
9410;DHT22;4744;52.576;13.568;2023-05-07T04:58:22;8.50;1.00
9410;DHT22;4744;52.576;13.568;2023-05-07T05:00:49;8.50;1.00
9410;DHT22;4744;52.576;13.568;2023-05-07T05:03:16;8.50;1.00
9410;DHT22;4744;52.576;13.568;2023-05-07T05:05:43;8.60;1.00
9410;DHT22;4744;52.576;13.568;2023-05-07T05:08:12;8.60;1.00
9410;DHT22;4744;52.576;13.568;2023-05-07T05:10:39;8.70;1.00
9410;DHT22;4744;52.576;13.568;2023-05-07T05:13:07;8.70;1.00
9410;DHT22;4744;52.576;13.568;2023-05-07T05:15:34;8.70;1.00
9410;DHT22;4744;52.576;13.568;2023-05-07T05:18:04;8.80;1.00
9410;DHT22;4744;52.576;13.568;2023-05-07T05:20:32;8.70;1.00
9410;DHT22;4744;52.576;13.568;2023-05-07T05:22:58;8.70;1.00
9410;DHT22;4744;52.576;13.568;2023-05-07T05:25:27;8.70;1.00
9410;DHT22;4744;52.576;13.568;2023-05-07T05:27:54;8.80;1.00
9410;DHT22;4744;52.576;13.568;2023-05-07T05:30:21;8.80;1.00
9410;DHT22;4744;52.576;13.568;2023-05-07T05:32:47;8.90;1.00
9410;DHT22;4744;52.576;13.568;2023-05-07T05:35:14;9.00;1.00
9410;DHT22;4744;52.576;13.568;2023-05-07T05:37:41;9.10;1.00
9410;DHT22;4744;52.576;13.568;2023-05-07T05:40:09;9.10;1.00
9410;DHT22;4744;52.576;13.568;2023-05-07T05:42:37;9.20;1.00
9410;DHT22;4744;52.576;13.568;2023-05-07T05:45:05;9.20;1.00
9410;DHT22;4744;52.576;13.568;2023-05-07T05:47:32;9.30;1.00
9410;DHT22;4744;52.576;13.568;2023-05-07T05:49:59;9.40;1.00
9410;DHT22;4744;52.576;13.568;2023-05-07T05:52:26;9.50;1.00
9410;DHT22;4744;52.576;13.568;2023-05-07T05:54:53;9.60;1.00
9410;DHT22;4744;52.576;13.568;2023-05-07T05:57:20;9.70;1.00
9410;DHT22;4744;52.576;13.568;2023-05-07T05:59:49;9.70;1.00
9410;DHT22;4744;52.576;13.568;2023-05-07T06:02:15;9.80;1.00
9410;DHT22;4744;52.576;13.568;2023-05-07T06:04:42;9.90;1.00
9410;DHT22;4744;52.576;13.568;2023-05-07T06:07:09;10.00;1.00
9410;DHT22;4744;52.576;13.568;2023-05-07T06:09:36;10.10;1.00
9410;DHT22;4744;52.576;13.568;2023-05-07T06:12:04;10.20;1.00
9410;DHT22;4744;52.576;13.568;2023-05-07T06:14:30;10.20;1.00
9410;DHT22;4744;52.576;13.568;2023-05-07T06:16:59;10.10;1.00
9410;DHT22;4744;52.576;13.568;2023-05-07T06:19:26;10.10;1.00
9410;DHT22;4744;52.576;13.568;2023-05-07T06:21:53;10.10;1.00
9410;DHT22;4744;52.576;13.568;2023-05-07T06:24:21;10.10;1.00
9410;DHT22;4744;52.576;13.568;2023-05-07T06:26:48;10.20;1.00
9410;DHT22;4744;52.576;13.568;2023-05-07T06:29:15;10.20;1.00
9410;DHT22;4744;52.576;13.568;2023-05-07T06:31:45;10.20;1.00
9410;DHT22;4744;52.576;13.568;2023-05-07T06:34:13;10.20;1.00
9410;DHT22;4744;52.576;13.568;2023-05-07T06:36:40;10.30;1.00
9410;DHT22;4744;52.576;13.568;2023-05-07T06:39:07;10.30;1.00
9410;DHT22;4744;52.576;13.568;2023-05-07T06:41:34;10.30;1.00
9410;DHT22;4744;52.576;13.568;2023-05-07T06:44:02;10.10;1.00
9410;DHT22;4744;52.576;13.568;2023-05-07T06:46:29;10.10;1.00
9410;DHT22;4744;52.576;13.568;2023-05-07T06:48:56;10.20;1.00
9410;DHT22;4744;52.576;13.568;2023-05-07T06:51:24;10.40;1.00
9410;DHT22;4744;52.576;13.568;2023-05-07T06:53:52;10.50;1.00
9410;DHT22;4744;52.576;13.568;2023-05-07T06:56:19;10.50;1.00
9410;DHT22;4744;52.576;13.568;2023-05-07T06:58:46;10.50;1.00
9410;DHT22;4744;52.576;13.568;2023-05-07T07:01:13;10.60;1.00
9410;DHT22;4744;52.576;13.568;2023-05-07T07:03:40;10.70;1.00
9410;DHT22;4744;52.576;13.568;2023-05-07T07:06:07;10.80;1.00
9410;DHT22;4744;52.576;13.568;2023-05-07T07:08:35;11.00;1.00
9410;DHT22;4744;52.576;13.568;2023-05-07T07:11:04;11.20;1.00
9410;DHT22;4744;52.576;13.568;2023-05-07T07:13:31;11.40;1.00
9410;DHT22;4744;52.576;13.568;2023-05-07T07:15:58;11.60;1.00
9410;DHT22;4744;52.576;13.568;2023-05-07T07:18:25;11.70;1.00
9410;DHT22;4744;52.576;13.568;2023-05-07T07:20:51;11.70;1.00
9410;DHT22;4744;52.576;13.568;2023-05-07T07:23:18;11.70;1.00
9410;DHT22;4744;52.576;13.568;2023-05-07T07:25:47;11.60;1.00
9410;DHT22;4744;52.576;13.568;2023-05-07T07:28:14;11.70;1.00
9410;DHT22;4744;52.576;13.568;2023-05-07T07:30:41;11.70;1.00
9410;DHT22;4744;52.576;13.568;2023-05-07T07:33:08;11.70;1.00
9410;DHT22;4744;52.576;13.568;2023-05-07T07:35:35;11.90;1.00
9410;DHT22;4744;52.576;13.568;2023-05-07T07:38:02;12.00;1.00
9410;DHT22;4744;52.576;13.568;2023-05-07T07:40:29;12.10;1.00
9410;DHT22;4744;52.576;13.568;2023-05-07T07:42:57;12.20;1.00
9410;DHT22;4744;52.576;13.568;2023-05-07T07:45:25;12.30;1.00
9410;DHT22;4744;52.576;13.568;2023-05-07T07:47:52;12.40;1.00
9410;DHT22;4744;52.576;13.568;2023-05-07T07:50:19;12.60;1.00
9410;DHT22;4744;52.576;13.568;2023-05-07T07:52:46;12.80;1.00
9410;DHT22;4744;52.576;13.568;2023-05-07T07:55:19;12.90;1.00
9410;DHT22;4744;52.576;13.568;2023-05-07T07:57:48;13.10;1.00
9410;DHT22;4744;52.576;13.568;2023-05-07T08:00:17;13.10;1.00
9410;DHT22;4744;52.576;13.568;2023-05-07T08:02:44;13.30;1.00
9410;DHT22;4744;52.576;13.568;2023-05-07T08:05:18;13.40;1.00
9410;DHT22;4744;52.576;13.568;2023-05-07T08:07:45;13.50;1.00
9410;DHT22;4744;52.576;13.568;2023-05-07T08:10:17;13.60;1.00
9410;DHT22;4744;52.576;13.568;2023-05-07T08:12:46;13.80;1.00
9410;DHT22;4744;52.576;13.568;2023-05-07T08:15:16;13.90;1.00
9410;DHT22;4744;52.576;13.568;2023-05-07T08:17:43;14.20;1.00
9410;DHT22;4744;52.576;13.568;2023-05-07T08:20:10;14.50;1.00
9410;DHT22;4744;52.576;13.568;2023-05-07T08:22:37;14.60;1.00
9410;DHT22;4744;52.576;13.568;2023-05-07T08:25:05;15.30;1.00
9410;DHT22;4744;52.576;13.568;2023-05-07T08:27:32;15.90;1.00
9410;DHT22;4744;52.576;13.568;2023-05-07T08:30:01;16.70;1.00
9410;DHT22;4744;52.576;13.568;2023-05-07T08:32:29;17.30;1.00
9410;DHT22;4744;52.576;13.568;2023-05-07T08:34:56;17.20;1.00
9410;DHT22;4744;52.576;13.568;2023-05-07T08:37:23;16.70;1.00
9410;DHT22;4744;52.576;13.568;2023-05-07T08:39:50;16.40;1.00
9410;DHT22;4744;52.576;13.568;2023-05-07T08:42:17;16.60;1.00
9410;DHT22;4744;52.576;13.568;2023-05-07T08:44:45;16.40;1.00
9410;DHT22;4744;52.576;13.568;2023-05-07T08:47:13;15.90;1.00
9410;DHT22;4744;52.576;13.568;2023-05-07T08:49:42;16.00;1.00
9410;DHT22;4744;52.576;13.568;2023-05-07T08:52:09;16.10;1.00
9410;DHT22;4744;52.576;13.568;2023-05-07T08:54:37;16.10;1.00
9410;DHT22;4744;52.576;13.568;2023-05-07T08:57:04;16.10;1.00
9410;DHT22;4744;52.576;13.568;2023-05-07T08:59:31;15.90;1.00
9410;DHT22;4744;52.576;13.568;2023-05-07T09:01:57;15.50;1.00
9410;DHT22;4744;52.576;13.568;2023-05-07T09:04:24;15.00;1.00
9410;DHT22;4744;52.576;13.568;2023-05-07T09:06:53;14.60;1.00
9410;DHT22;4744;52.576;13.568;2023-05-07T09:09:22;14.70;1.00
9410;DHT22;4744;52.576;13.568;2023-05-07T09:11:49;14.60;1.00
9410;DHT22;4744;52.576;13.568;2023-05-07T09:14:24;14.80;1.00
9410;DHT22;4744;52.576;13.568;2023-05-07T09:16:52;15.00;1.00
9410;DHT22;4744;52.576;13.568;2023-05-07T09:19:22;14.90;1.00
9410;DHT22;4744;52.576;13.568;2023-05-07T09:21:49;15.00;1.00
9410;DHT22;4744;52.576;13.568;2023-05-07T09:24:20;15.00;1.00
9410;DHT22;4744;52.576;13.568;2023-05-07T09:26:47;14.90;1.00
9410;DHT22;4744;52.576;13.568;2023-05-07T09:29:15;14.70;1.00
9410;DHT22;4744;52.576;13.568;2023-05-07T09:31:43;14.90;1.00
9410;DHT22;4744;52.576;13.568;2023-05-07T09:34:10;15.10;1.00
9410;DHT22;4744;52.576;13.568;2023-05-07T09:36:37;15.40;1.00
9410;DHT22;4744;52.576;13.568;2023-05-07T09:39:04;15.40;1.00
9410;DHT22;4744;52.576;13.568;2023-05-07T09:41:32;15.40;1.00
9410;DHT22;4744;52.576;13.568;2023-05-07T09:43:59;15.50;1.00
9410;DHT22;4744;52.576;13.568;2023-05-07T09:46:30;15.60;1.00
9410;DHT22;4744;52.576;13.568;2023-05-07T09:48:57;15.50;1.00
9410;DHT22;4744;52.576;13.568;2023-05-07T09:51:29;15.40;1.00
9410;DHT22;4744;52.576;13.568;2023-05-07T09:53:57;15.30;1.00
9410;DHT22;4744;52.576;13.568;2023-05-07T09:56:26;15.50;1.00
9410;DHT22;4744;52.576;13.568;2023-05-07T09:58:56;15.80;1.00
9410;DHT22;4744;52.576;13.568;2023-05-07T10:01:24;16.10;1.00
9410;DHT22;4744;52.576;13.568;2023-05-07T10:03:53;16.30;1.00
9410;DHT22;4744;52.576;13.568;2023-05-07T10:06:20;16.20;1.00
9410;DHT22;4744;52.576;13.568;2023-05-07T10:08:48;16.00;1.00
9410;DHT22;4744;52.576;13.568;2023-05-07T10:11:16;15.60;1.00
9410;DHT22;4744;52.576;13.568;2023-05-07T10:13:43;15.30;1.00
9410;DHT22;4744;52.576;13.568;2023-05-07T10:16:12;15.20;1.00
9410;DHT22;4744;52.576;13.568;2023-05-07T10:18:43;15.10;1.00
9410;DHT22;4744;52.576;13.568;2023-05-07T10:21:16;14.90;1.00
9410;DHT22;4744;52.576;13.568;2023-05-07T10:23:45;15.10;1.00
9410;DHT22;4744;52.576;13.568;2023-05-07T10:26:13;15.20;1.00
9410;DHT22;4744;52.576;13.568;2023-05-07T10:28:44;15.40;1.00
9410;DHT22;4744;52.576;13.568;2023-05-07T10:31:29;15.30;1.00
9410;DHT22;4744;52.576;13.568;2023-05-07T10:33:59;15.30;1.00
9410;DHT22;4744;52.576;13.568;2023-05-07T10:36:28;15.40;1.00
9410;DHT22;4744;52.576;13.568;2023-05-07T10:38:55;15.40;1.00
9410;DHT22;4744;52.576;13.568;2023-05-07T10:41:22;15.40;1.00
9410;DHT22;4744;52.576;13.568;2023-05-07T10:43:49;15.20;1.00
9410;DHT22;4744;52.576;13.568;2023-05-07T10:46:18;14.90;1.00
9410;DHT22;4744;52.576;13.568;2023-05-07T10:49:10;15.10;1.00
9410;DHT22;4744;52.576;13.568;2023-05-07T10:51:38;15.50;1.00
9410;DHT22;4744;52.576;13.568;2023-05-07T10:54:21;15.80;1.00
9410;DHT22;4744;52.576;13.568;2023-05-07T10:56:49;16.30;1.00
9410;DHT22;4744;52.576;13.568;2023-05-07T10:59:38;16.70;1.00
9410;DHT22;4744;52.576;13.568;2023-05-07T11:02:10;16.70;1.00
9410;DHT22;4744;52.576;13.568;2023-05-07T11:04:39;16.90;1.00
9410;DHT22;4744;52.576;13.568;2023-05-07T11:07:30;17.10;1.00
9410;DHT22;4744;52.576;13.568;2023-05-07T11:09:59;17.50;1.00
9410;DHT22;4744;52.576;13.568;2023-05-07T11:12:52;17.60;1.00
9410;DHT22;4744;52.576;13.568;2023-05-07T11:15:39;17.60;1.00
9410;DHT22;4744;52.576;13.568;2023-05-07T11:18:09;17.30;1.00
9410;DHT22;4744;52.576;13.568;2023-05-07T11:20:54;17.40;1.00
9410;DHT22;4744;52.576;13.568;2023-05-07T11:26:44;17.20;1.00
9410;DHT22;4744;52.576;13.568;2023-05-07T11:29:12;17.10;1.00
9410;DHT22;4744;52.576;13.568;2023-05-07T11:31:40;17.00;1.00
9410;DHT22;4744;52.576;13.568;2023-05-07T11:34:09;16.70;1.00
9410;DHT22;4744;52.576;13.568;2023-05-07T11:36:42;16.60;1.00
9410;DHT22;4744;52.576;13.568;2023-05-07T11:39:24;16.50;1.00
9410;DHT22;4744;52.576;13.568;2023-05-07T11:41:51;16.70;1.00
9410;DHT22;4744;52.576;13.568;2023-05-07T11:44:18;16.80;1.00
9410;DHT22;4744;52.576;13.568;2023-05-07T11:46:45;16.50;1.00
9410;DHT22;4744;52.576;13.568;2023-05-07T11:49:14;16.40;1.00
9410;DHT22;4744;52.576;13.568;2023-05-07T11:51:41;16.60;1.00
9410;DHT22;4744;52.576;13.568;2023-05-07T11:54:08;16.80;1.00
9410;DHT22;4744;52.576;13.568;2023-05-07T11:56:37;16.90;1.00
9410;DHT22;4744;52.576;13.568;2023-05-07T11:59:04;17.20;1.00
9410;DHT22;4744;52.576;13.568;2023-05-07T12:01:31;17.30;1.00
9410;DHT22;4744;52.576;13.568;2023-05-07T12:03:58;17.40;1.00
9410;DHT22;4744;52.576;13.568;2023-05-07T12:06:30;17.30;1.00
9410;DHT22;4744;52.576;13.568;2023-05-07T12:08:57;17.30;1.00
9410;DHT22;4744;52.576;13.568;2023-05-07T12:11:25;17.30;1.00
9410;DHT22;4744;52.576;13.568;2023-05-07T12:13:53;17.20;1.00
9410;DHT22;4744;52.576;13.568;2023-05-07T12:16:21;17.10;1.00
9410;DHT22;4744;52.576;13.568;2023-05-07T12:18:48;17.20;1.00
9410;DHT22;4744;52.576;13.568;2023-05-07T12:21:15;17.30;1.00
9410;DHT22;4744;52.576;13.568;2023-05-07T12:23:45;17.20;1.00
9410;DHT22;4744;52.576;13.568;2023-05-07T12:26:12;17.10;1.00
9410;DHT22;4744;52.576;13.568;2023-05-07T12:28:39;16.80;1.00
9410;DHT22;4744;52.576;13.568;2023-05-07T12:31:06;16.70;1.00
9410;DHT22;4744;52.576;13.568;2023-05-07T12:33:34;16.80;1.00
9410;DHT22;4744;52.576;13.568;2023-05-07T12:36:04;17.00;1.00
9410;DHT22;4744;52.576;13.568;2023-05-07T12:38:37;17.20;1.00
9410;DHT22;4744;52.576;13.568;2023-05-07T12:41:06;17.40;1.00
9410;DHT22;4744;52.576;13.568;2023-05-07T12:43:34;17.40;1.00
9410;DHT22;4744;52.576;13.568;2023-05-07T12:46:04;17.30;1.00
9410;DHT22;4744;52.576;13.568;2023-05-07T12:48:32;17.30;1.00
9410;DHT22;4744;52.576;13.568;2023-05-07T12:51:00;17.40;1.00
9410;DHT22;4744;52.576;13.568;2023-05-07T12:53:28;17.30;1.00
9410;DHT22;4744;52.576;13.568;2023-05-07T12:55:57;17.10;1.00
9410;DHT22;4744;52.576;13.568;2023-05-07T12:58:26;17.30;1.00
9410;DHT22;4744;52.576;13.568;2023-05-07T13:00:54;17.40;1.00
9410;DHT22;4744;52.576;13.568;2023-05-07T13:03:26;17.50;1.00
9410;DHT22;4744;52.576;13.568;2023-05-07T13:05:54;17.50;1.00
9410;DHT22;4744;52.576;13.568;2023-05-07T13:08:29;17.60;1.00
9410;DHT22;4744;52.576;13.568;2023-05-07T13:10:57;17.60;1.00
9410;DHT22;4744;52.576;13.568;2023-05-07T13:13:30;17.60;1.00
9410;DHT22;4744;52.576;13.568;2023-05-07T13:15:57;17.50;1.00
9410;DHT22;4744;52.576;13.568;2023-05-07T13:18:25;17.60;1.00
9410;DHT22;4744;52.576;13.568;2023-05-07T13:20:52;17.50;1.00
9410;DHT22;4744;52.576;13.568;2023-05-07T13:23:19;17.40;1.00
9410;DHT22;4744;52.576;13.568;2023-05-07T13:25:47;17.30;1.00
9410;DHT22;4744;52.576;13.568;2023-05-07T13:28:14;17.20;1.00
9410;DHT22;4744;52.576;13.568;2023-05-07T13:30:43;17.30;1.00
9410;DHT22;4744;52.576;13.568;2023-05-07T13:33:10;17.40;1.00
9410;DHT22;4744;52.576;13.568;2023-05-07T13:35:36;17.60;1.00
9410;DHT22;4744;52.576;13.568;2023-05-07T13:38:04;17.70;1.00
9410;DHT22;4744;52.576;13.568;2023-05-07T13:40:31;17.80;1.00
9410;DHT22;4744;52.576;13.568;2023-05-07T13:42:58;17.90;1.00
9410;DHT22;4744;52.576;13.568;2023-05-07T13:45:27;18.00;1.00
9410;DHT22;4744;52.576;13.568;2023-05-07T13:47:57;18.00;1.00
9410;DHT22;4744;52.576;13.568;2023-05-07T13:50:24;18.10;1.00
9410;DHT22;4744;52.576;13.568;2023-05-07T13:52:52;18.20;1.00
9410;DHT22;4744;52.576;13.568;2023-05-07T13:55:19;18.40;1.00
9410;DHT22;4744;52.576;13.568;2023-05-07T13:57:47;18.50;1.00
9410;DHT22;4744;52.576;13.568;2023-05-07T14:00:14;18.50;1.00
9410;DHT22;4744;52.576;13.568;2023-05-07T14:02:41;18.50;1.00
9410;DHT22;4744;52.576;13.568;2023-05-07T14:05:10;18.60;1.00
9410;DHT22;4744;52.576;13.568;2023-05-07T14:07:38;18.50;1.00
9410;DHT22;4744;52.576;13.568;2023-05-07T14:10:06;18.40;1.00
9410;DHT22;4744;52.576;13.568;2023-05-07T14:12:34;18.40;1.00
9410;DHT22;4744;52.576;13.568;2023-05-07T14:15:00;18.40;1.00
9410;DHT22;4744;52.576;13.568;2023-05-07T14:17:27;18.40;1.00
9410;DHT22;4744;52.576;13.568;2023-05-07T14:19:54;18.40;1.00
9410;DHT22;4744;52.576;13.568;2023-05-07T14:22:23;18.50;1.00
9410;DHT22;4744;52.576;13.568;2023-05-07T14:24:50;18.30;1.00
9410;DHT22;4744;52.576;13.568;2023-05-07T14:27:17;18.20;1.00
9410;DHT22;4744;52.576;13.568;2023-05-07T14:29:44;18.20;1.00
9410;DHT22;4744;52.576;13.568;2023-05-07T14:32:16;18.20;1.00
9410;DHT22;4744;52.576;13.568;2023-05-07T14:34:43;18.10;1.00
9410;DHT22;4744;52.576;13.568;2023-05-07T14:37:10;18.00;1.00
9410;DHT22;4744;52.576;13.568;2023-05-07T14:39:38;17.90;1.00
9410;DHT22;4744;52.576;13.568;2023-05-07T14:42:05;17.90;1.00
9410;DHT22;4744;52.576;13.568;2023-05-07T14:44:33;17.80;1.00
9410;DHT22;4744;52.576;13.568;2023-05-07T14:47:00;17.80;1.00
9410;DHT22;4744;52.576;13.568;2023-05-07T14:49:27;17.90;1.00
9410;DHT22;4744;52.576;13.568;2023-05-07T14:51:54;17.90;1.00
9410;DHT22;4744;52.576;13.568;2023-05-07T14:54:23;17.90;1.00
9410;DHT22;4744;52.576;13.568;2023-05-07T14:56:51;18.00;1.00
9410;DHT22;4744;52.576;13.568;2023-05-07T14:59:18;18.00;1.00
9410;DHT22;4744;52.576;13.568;2023-05-07T15:01:46;18.00;1.00
9410;DHT22;4744;52.576;13.568;2023-05-07T15:04:13;17.90;1.00
9410;DHT22;4744;52.576;13.568;2023-05-07T15:06:40;17.70;1.00
9410;DHT22;4744;52.576;13.568;2023-05-07T15:09:07;17.60;1.00
9410;DHT22;4744;52.576;13.568;2023-05-07T15:11:34;17.40;1.00
9410;DHT22;4744;52.576;13.568;2023-05-07T15:14:03;17.10;1.00
9410;DHT22;4744;52.576;13.568;2023-05-07T15:16:30;16.90;1.00
9410;DHT22;4744;52.576;13.568;2023-05-07T15:18:58;16.70;1.00
9410;DHT22;4744;52.576;13.568;2023-05-07T15:21:25;16.60;1.00
9410;DHT22;4744;52.576;13.568;2023-05-07T15:23:52;16.70;1.00
9410;DHT22;4744;52.576;13.568;2023-05-07T15:26:19;16.90;1.00
9410;DHT22;4744;52.576;13.568;2023-05-07T15:28:45;17.00;1.00
9410;DHT22;4744;52.576;13.568;2023-05-07T15:31:15;17.10;1.00
9410;DHT22;4744;52.576;13.568;2023-05-07T15:33:42;17.00;1.00
9410;DHT22;4744;52.576;13.568;2023-05-07T15:36:10;16.90;1.00
9410;DHT22;4744;52.576;13.568;2023-05-07T15:38:37;16.90;1.00
9410;DHT22;4744;52.576;13.568;2023-05-07T15:41:04;16.70;1.00
9410;DHT22;4744;52.576;13.568;2023-05-07T15:43:30;16.50;1.00
9410;DHT22;4744;52.576;13.568;2023-05-07T15:45:57;16.30;1.00
9410;DHT22;4744;52.576;13.568;2023-05-07T15:48:27;16.20;1.00
9410;DHT22;4744;52.576;13.568;2023-05-07T15:50:54;16.10;1.00
9410;DHT22;4744;52.576;13.568;2023-05-07T15:53:21;16.00;1.00
9410;DHT22;4744;52.576;13.568;2023-05-07T15:55:48;16.00;1.00
9410;DHT22;4744;52.576;13.568;2023-05-07T15:58:15;16.10;1.00
9410;DHT22;4744;52.576;13.568;2023-05-07T16:00:44;16.30;1.00
9410;DHT22;4744;52.576;13.568;2023-05-07T16:03:11;16.40;1.00
9410;DHT22;4744;52.576;13.568;2023-05-07T16:05:39;16.40;1.00
9410;DHT22;4744;52.576;13.568;2023-05-07T16:08:06;16.40;1.00
9410;DHT22;4744;52.576;13.568;2023-05-07T16:10:33;16.40;1.00
9410;DHT22;4744;52.576;13.568;2023-05-07T16:13:00;16.40;1.00
9410;DHT22;4744;52.576;13.568;2023-05-07T16:15:27;16.30;1.00